CDT,Max TemperatureF,Mean TemperatureF,Min TemperatureF,Max Dew PointF,MeanDew PointF,Min DewpointF,Max Humidity, Mean Humidity, Min Humidity, Max Sea Level PressureIn, Mean Sea Level PressureIn, Min Sea Level PressureIn, Max VisibilityMiles, Mean VisibilityMiles, Min VisibilityMiles, Max Wind SpeedMPH, Mean Wind SpeedMPH, Max Gust SpeedMPH,PrecipitationIn, CloudCover, Events, WindDirDegrees
2013-9-1,81,4,-73,71,68,66,100,96,67,30.00,29.92,29.88,10,6,0,10,5,,1.08,4,Fog-Rain-Thunderstorm,205
2013-9-2,-73,-74,-74,,,,,,,30.09,29.95,29.87,10,8,3,8,2,,0.05,3,Rain-Thunderstorm,243
2013-9-3,,,,,,,,,,30.02,29.95,29.92,10,5,2,7,0,,0.00,6,,10
2013-9-4,,,,,,,,,,,,,,,,,,,,,,
2013-9-5,,,,,,,,,,,,,,,,,,,,,,
2013-9-6,-72,-73,-74,,,,,,,30.36,30.24,30.14,10,6,0,10,4,,0.00,0,Fog,37
2013-9-7,-72,-73,-74,,,,,,,30.30,30.17,30.05,10,4,0,6,0,,0.00,0,Fog,277
2013-9-8,-73,-74,-74,,,,,,,30.21,30.09,30.00,10,6,2,6,0,,0.00,1,,350
2013-9-9,-73,-74,-74,,,,,,,30.21,30.08,30.06,10,4,0,9,1,,0.00,0,Fog-Thunderstorm,199
2013-9-10,-73,-74,-74,,,,,,,30.24,30.20,30.14,10,4,0,17,3,25,0.43,2,Rain-Thunderstorm,224
2013-9-11,87,6,-74,73,70,68,100,89,58,30.36,30.20,30.11,10,4,0,8,1,,0.00,0,Fog-Thunderstorm,242
2013-9-12,87,76,64,75,69,64,100,93,62,30.12,30.04,29.95,10,4,0,12,2,,0.12,2,Fog-Rain-Thunderstorm,250
2013-9-13,74,63,50,67,59,48,100,82,46,30.09,30.01,29.96,10,7,0,15,4,21,0.00,2,Fog,6
2013-9-14,70,58,45,54,49,45,100,81,46,30.16,30.12,30.08,10,9,2,13,3,16,0.00,0,,54
2013-9-15,79,63,47,64,57,48,100,80,50,30.19,30.15,30.12,10,9,3,10,3,,0.00,0,,195
2013-9-16,72,64,56,64,61,57,100,88,66,30.25,30.21,30.14,10,8,3,7,1,,0.00,1,Rain,67
2013-9-17,79,67,55,65,60,55,100,86,54,30.28,30.23,30.17,10,7,2,8,3,,0.00,2,,58
2013-9-18,75,70,66,67,64,61,90,80,69,30.23,30.18,30.14,10,10,8,9,5,,0.00,5,Rain,174
2013-9-19,82,70,59,69,65,60,100,84,60,30.20,30.13,30.07,10,8,2,8,1,,0.00,0,,225
2013-9-20,83,72,61,69,65,61,100,77,56,30.07,29.99,29.87,10,8,3,12,2,,0.00,0,Rain,206
2013-9-21,72,62,50,68,63,51,100,94,59,29.91,29.83,29.73,10,5,0,17,7,28,0.51,6,Fog-Rain,295
2013-9-22,72,59,46,54,50,46,100,89,48,30.01,29.94,29.90,10,4,0,9,1,,0.00,3,Fog,21
2013-9-23,77,62,46,61,55,47,100,81,55,30.08,30.04,30.01,10,10,5,8,2,,0.00,0,,37
2013-9-24,77,64,52,65,59,53,100,84,52,30.08,30.01,29.90,10,7,0,12,1,,0.00,3,Fog,118
2013-9-25,72,66,59,66,63,59,100,94,76,29.94,29.91,29.87,10,4,0,7,1,,0.01,4,Fog-Rain,115
2013-9-26,77,65,52,63,61,52,100,94,50,30.10,30.01,29.93,10,4,0,8,1,,0.00,6,Fog,57
2013-9-27,81,66,50,62,54,50,100,92,44,30.20,30.12,30.09,10,3,0,5,0,,0.00,3,Fog,170
2013-9-28,79,64,50,62,56,51,100,87,48,30.25,30.17,30.13,10,6,0,6,0,,0.00,0,Fog,144
2013-9-29,72,62,52,61,56,53,100,88,55,30.16,30.11,30.06,10,6,0,8,1,,0.00,0,Fog,196
2013-9-30,77,64,52,59,56,53,100,88,50,30.11,30.07,30.02,10,6,0,9,1,,0.00,2,Fog,196